Time;durP1;ratioP1;P1;durP2;ratioP2;P2;SDS_P1;SDS_P2;PMS_P1;PMS_P2;Temp;Humidity;BMP_temperature;BMP_pressure;BME280_temperature;BME280_humidity;BME280_pressure;Samples;Min_cycle;Max_cycle;Signal;HPM_P1;HPM_P2
2023/06/11 00:00:54;;;;;;;11.75;7.80;;;;;;;21.52;57.34;101902.88;7388241;19;20042;-64
2023/06/11 00:03:21;;;;;;;16.95;12.30;;;;;;;21.51;57.16;101901.22;7389485;19;20026;-64
2023/06/11 00:05:49;;;;;;;20.13;12.20;;;;;;;21.49;57.25;101905.91;7390729;19;20046;-65
2023/06/11 00:08:16;;;;;;;15.15;10.77;;;;;;;21.48;57.33;101910.44;7390732;19;20015;-65
2023/06/11 00:10:44;;;;;;;16.48;9.95;;;;;;;21.47;57.38;101906.06;7389487;19;20019;-65
2023/06/11 00:13:11;;;;;;;13.80;9.23;;;;;;;21.41;56.95;101902.16;7388739;19;20018;-66
2023/06/11 00:15:38;;;;;;;14.73;8.07;;;;;;;21.41;57.34;101912.09;7390301;19;20018;-66
2023/06/11 00:18:05;;;;;;;13.55;6.82;;;;;;;21.43;56.43;101904.69;7390607;19;20019;-65
2023/06/11 00:20:32;;;;;;;12.55;7.13;;;;;;;21.45;56.15;101909.94;7389813;19;20018;-65
2023/06/11 00:23:00;;;;;;;14.25;7.07;;;;;;;21.51;56.07;101909.28;7389603;19;20526;-65
2023/06/11 00:25:28;;;;;;;11.52;5.18;;;;;;;21.48;55.85;101907.75;7389951;19;20026;-66
2023/06/11 00:27:55;;;;;;;11.45;5.38;;;;;;;21.44;55.25;101917.16;7389996;19;20391;-66
2023/06/11 00:30:22;;;;;;;10.02;4.88;;;;;;;21.45;54.69;101910.78;7389338;19;20023;-66
2023/06/11 00:32:49;;;;;;;9.40;4.95;;;;;;;21.46;54.29;101912.47;7388347;19;20039;-66
2023/06/11 00:35:17;;;;;;;9.10;4.55;;;;;;;21.42;54.16;101913.78;7388526;19;20369;-62
2023/06/11 00:37:44;;;;;;;9.75;4.72;;;;;;;21.39;54.17;101906.00;7390343;19;20036;-61
2023/06/11 00:40:12;;;;;;;8.32;4.35;;;;;;;21.35;54.23;101912.69;7389204;19;20022;-60
2023/06/11 00:42:40;;;;;;;9.80;4.28;;;;;;;21.33;53.31;101912.00;7387280;19;20026;-61
2023/06/11 00:45:08;;;;;;;8.50;4.57;;;;;;;21.30;53.36;101915.00;7389088;19;20023;-62
2023/06/11 00:47:38;;;;;;;8.50;4.13;;;;;;;21.27;52.81;101907.22;7389594;19;20018;-61
2023/06/11 00:50:08;;;;;;;9.05;4.18;;;;;;;21.27;52.92;101915.28;7389448;19;20015;-61
2023/06/11 00:52:35;;;;;;;9.90;4.95;;;;;;;21.22;53.06;101912.22;7388010;19;20026;-61
2023/06/11 00:55:03;;;;;;;11.00;5.13;;;;;;;21.14;52.58;101913.00;7388836;19;20487;-61
2023/06/11 00:57:31;;;;;;;9.25;4.82;;;;;;;21.10;52.71;101911.59;7389025;19;20042;-69
2023/06/11 01:00:00;;;;;;;13.35;5.13;;;;;;;21.07;52.58;101907.38;7388872;19;20018;-69
2023/06/11 01:02:44;;;;;;;9.55;4.30;;;;;;;21.09;52.33;101910.75;7386675;19;20030;-69
2023/06/11 01:05:17;;;;;;;11.68;4.15;;;;;;;20.99;51.87;101917.22;7389575;19;20035;-68
2023/06/11 01:07:50;;;;;;;13.98;4.93;;;;;;;20.98;51.93;101912.81;7392270;19;20011;-71
2023/06/11 01:10:18;;;;;;;7.57;3.80;;;;;;;20.94;51.81;101902.34;7396439;19;20039;-72
2023/06/11 01:12:47;;;;;;;9.02;3.90;;;;;;;20.94;51.14;101906.88;7392571;19;20046;-67
2023/06/11 01:15:15;;;;;;;7.75;4.30;;;;;;;20.91;50.97;101905.38;7395996;19;20019;-68
2023/06/11 01:18:07;;;;;;;8.77;4.00;;;;;;;20.88;51.04;101912.91;7394543;19;20029;-77
2023/06/11 01:20:42;;;;;;;12.80;4.55;;;;;;;20.88;50.71;101921.81;7393658;19;20018;-76
2023/06/11 01:23:20;;;;;;;10.75;4.28;;;;;;;20.87;50.41;101919.25;7395067;19;20015;-75
2023/06/11 01:26:09;;;;;;;9.45;3.90;;;;;;;20.84;50.78;101922.28;7395626;19;20474;-68
2023/06/11 01:28:38;;;;;;;7.28;4.28;;;;;;;20.75;50.62;101926.72;7395469;19;20023;-67
2023/06/11 01:31:11;;;;;;;7.47;3.83;;;;;;;20.71;50.97;101921.78;7394970;19;20014;-70
2023/06/11 01:33:38;;;;;;;8.90;3.85;;;;;;;20.61;51.37;101921.84;7393472;19;20022;-68
2023/06/11 01:36:06;;;;;;;10.07;4.18;;;;;;;20.54;51.39;101924.28;7394930;19;20025;-75
2023/06/11 01:38:41;;;;;;;9.27;4.13;;;;;;;20.48;51.64;101924.84;7393836;19;20040;-72
2023/06/11 01:41:11;;;;;;;7.65;4.40;;;;;;;20.49;51.45;101928.38;7394162;19;20034;-72
2023/06/11 01:43:38;;;;;;;8.13;3.90;;;;;;;20.45;51.09;101927.81;7392110;19;20023;-77
2023/06/11 01:46:06;;;;;;;7.20;3.53;;;;;;;20.45;51.04;101936.78;7393464;19;20021;-74
2023/06/11 01:48:33;;;;;;;9.68;4.45;;;;;;;20.45;50.78;101938.59;7395601;19;20033;-75
2023/06/11 01:51:00;;;;;;;8.60;4.20;;;;;;;20.42;50.20;101939.75;7393783;19;20011;-74
2023/06/11 01:53:27;;;;;;;10.35;4.22;;;;;;;20.39;50.09;101937.34;7391393;19;20022;-74
2023/06/11 01:55:56;;;;;;;10.25;4.00;;;;;;;20.44;50.17;101936.91;7394503;19;20030;-74
2023/06/11 01:58:23;;;;;;;7.47;3.88;;;;;;;20.39;49.90;101937.34;7394364;19;20494;-68
2023/06/11 02:00:51;;;;;;;8.07;3.75;;;;;;;20.31;49.45;101934.56;7393371;19;20015;-68
2023/06/11 02:03:18;;;;;;;10.65;4.38;;;;;;;20.32;49.00;101932.72;7393626;19;20018;-68
2023/06/11 02:05:45;;;;;;;10.27;4.10;;;;;;;20.32;49.17;101941.63;7392367;19;20406;-68
2023/06/11 02:08:13;;;;;;;10.60;4.30;;;;;;;20.26;49.31;101936.84;7393837;19;20014;-69
2023/06/11 02:10:40;;;;;;;9.15;4.20;;;;;;;20.25;48.66;101939.66;7391782;19;20499;-69
2023/06/11 02:13:07;;;;;;;9.98;4.30;;;;;;;20.14;49.19;101938.00;7393875;19;20026;-69
2023/06/11 02:15:34;;;;;;;8.65;3.97;;;;;;;20.10;49.02;101940.13;7394162;19;20021;-68
2023/06/11 02:18:01;;;;;;;8.23;3.75;;;;;;;20.01;49.62;101930.28;7393818;19;20034;-66
2023/06/11 02:20:29;;;;;;;7.47;3.58;;;;;;;19.95;49.43;101938.91;7393294;19;20019;-66
2023/06/11 02:22:56;;;;;;;6.90;3.78;;;;;;;19.95;49.73;101939.75;7392553;19;20066;-66
2023/06/11 02:25:23;;;;;;;9.25;3.70;;;;;;;19.93;49.50;101944.44;7393427;19;20135;-66
2023/06/11 02:27:50;;;;;;;8.65;3.80;;;;;;;19.89;49.79;101942.19;7393761;19;20042;-66
2023/06/11 02:30:17;;;;;;;6.53;3.83;;;;;;;19.82;50.00;101938.38;7391658;19;20014;-66
2023/06/11 02:32:45;;;;;;;7.18;3.75;;;;;;;19.73;50.18;101934.72;7392030;19;20023;-66
2023/06/11 02:35:13;;;;;;;7.95;3.83;;;;;;;19.70;50.00;101937.69;7393151;19;20026;-66
2023/06/11 02:37:40;;;;;;;10.70;3.50;;;;;;;19.67;50.36;101932.59;7392110;19;20018;-66
2023/06/11 02:40:08;;;;;;;10.00;3.92;;;;;;;19.64;50.40;101935.56;7393572;19;20018;-66
2023/06/11 02:42:35;;;;;;;9.00;3.80;;;;;;;19.59;50.13;101941.34;7391785;19;20015;-66
2023/06/11 02:45:03;;;;;;;8.82;3.60;;;;;;;19.51;50.16;101935.84;7393408;19;20025;-66
2023/06/11 02:47:30;;;;;;;9.57;3.78;;;;;;;19.52;50.17;101940.22;7392884;19;20022;-67
2023/06/11 02:49:57;;;;;;;10.10;4.00;;;;;;;19.54;50.28;101940.94;7393421;19;20034;-66
2023/06/11 02:52:24;;;;;;;7.50;3.53;;;;;;;19.50;50.24;101936.84;7391491;19;20038;-66
2023/06/11 02:54:51;;;;;;;9.70;4.05;;;;;;;19.41;50.03;101938.53;7392971;19;20027;-66
2023/06/11 02:57:19;;;;;;;8.50;3.17;;;;;;;19.38;50.23;101937.94;7390603;19;20486;-67
2023/06/11 02:59:46;;;;;;;11.30;3.30;;;;;;;19.34;49.86;101944.59;7393101;19;20042;-66
2023/06/11 03:02:14;;;;;;;9.50;3.70;;;;;;;19.34;49.60;101945.44;7391985;19;20018;-66
2023/06/11 03:04:41;;;;;;;8.98;3.50;;;;;;;19.31;49.66;101943.06;7388925;19;20011;-76
2023/06/11 03:07:08;;;;;;;8.82;3.35;;;;;;;19.27;49.72;101947.03;7391801;19;20459;-77
2023/06/11 03:09:36;;;;;;;17.13;3.72;;;;;;;19.20;49.89;101943.19;7392660;19;20024;-71
2023/06/11 03:12:03;;;;;;;7.75;2.97;;;;;;;19.27;49.34;101946.16;7391765;19;20019;-74
2023/06/11 03:14:31;;;;;;;6.60;3.20;;;;;;;19.24;49.33;101948.13;7391008;19;20018;-64
2023/06/11 03:16:58;;;;;;;8.05;3.42;;;;;;;19.13;49.75;101945.59;7390554;19;20018;-65
2023/06/11 03:19:25;;;;;;;11.43;3.50;;;;;;;19.08;50.02;101949.66;7392751;19;20035;-65
2023/06/11 03:21:52;;;;;;;7.80;3.13;;;;;;;19.04;49.84;101949.13;7390018;19;20308;-65
2023/06/11 03:24:20;;;;;;;7.45;3.33;;;;;;;18.97;50.03;101947.97;7390430;19;20028;-65
2023/06/11 03:26:47;;;;;;;9.82;3.30;;;;;;;18.91;50.01;101948.50;7391786;19;20029;-65
2023/06/11 03:29:14;;;;;;;7.97;3.15;;;;;;;18.92;49.61;101953.72;7391232;19;20034;-66
2023/06/11 03:31:43;;;;;;;10.25;3.25;;;;;;;18.89;49.98;101937.94;7388310;19;20030;-65
2023/06/11 03:34:11;;;;;;;8.15;3.17;;;;;;;18.88;49.70;101944.25;7388762;19;20018;-65
2023/06/11 03:36:38;;;;;;;8.02;3.33;;;;;;;18.85;49.81;101949.06;7391060;19;20022;-65
2023/06/11 03:39:05;;;;;;;8.63;3.30;;;;;;;18.82;49.61;101960.09;7391669;19;20019;-66
2023/06/11 03:41:32;;;;;;;8.02;3.22;;;;;;;18.87;49.42;101956.00;7390236;19;20006;-65
2023/06/11 03:43:59;;;;;;;8.93;2.95;;;;;;;18.83;49.67;101956.41;7388189;19;20037;-65
2023/06/11 03:46:27;;;;;;;9.15;3.20;;;;;;;18.83;49.62;101954.56;7391087;19;20022;-65
2023/06/11 03:48:54;;;;;;;8.40;2.60;;;;;;;18.88;49.27;101952.31;7390884;19;20025;-65
2023/06/11 03:51:21;;;;;;;8.07;3.22;;;;;;;18.80;49.45;101956.69;7389887;19;20011;-65
2023/06/11 03:53:48;;;;;;;9.55;2.88;;;;;;;18.66;49.69;101957.88;7389887;19;20022;-65
2023/06/11 03:56:15;;;;;;;7.70;3.00;;;;;;;18.67;49.31;101965.78;7389588;19;20014;-65
2023/06/11 03:58:43;;;;;;;6.47;3.00;;;;;;;18.69;49.21;101961.13;7390132;19;20018;-65
2023/06/11 04:01:10;;;;;;;7.72;2.97;;;;;;;18.71;49.58;101959.19;7389077;19;20011;-65
2023/06/11 04:03:37;;;;;;;6.55;2.75;;;;;;;18.78;49.25;101954.16;7389753;19;20014;-65
2023/06/11 04:06:04;;;;;;;7.60;2.92;;;;;;;18.76;49.30;101956.09;7390647;19;20022;-65
2023/06/11 04:08:32;;;;;;;7.15;3.00;;;;;;;18.69;49.43;101952.22;7389145;19;20022;-71
2023/06/11 04:10:59;;;;;;;6.50;2.85;;;;;;;18.68;49.34;101962.13;7389933;19;20029;-66
2023/06/11 04:13:26;;;;;;;6.43;3.15;;;;;;;18.66;49.59;101953.38;7389263;19;20030;-67
2023/06/11 04:15:54;;;;;;;6.57;2.90;;;;;;;18.64;49.53;101957.16;7390798;19;20443;-66
2023/06/11 04:18:21;;;;;;;10.48;2.95;;;;;;;18.67;49.61;101960.44;7390399;19;20019;-71
2023/06/11 04:20:49;;;;;;;7.45;3.00;;;;;;;18.81;49.20;101963.72;7389840;19;20022;-70
2023/06/11 04:23:16;;;;;;;6.90;3.03;;;;;;;18.80;49.26;101967.41;7387807;19;20038;-71
2023/06/11 04:25:43;;;;;;;9.25;2.70;;;;;;;18.82;49.10;101969.00;7390397;19;20015;-66
2023/06/11 04:28:10;;;;;;;9.25;2.83;;;;;;;18.86;48.74;101972.25;7390122;19;20115;-67
2023/06/11 04:30:39;;;;;;;6.10;2.75;;;;;;;18.84;48.64;101968.84;7389719;19;20025;-70
2023/06/11 04:33:07;;;;;;;7.97;3.10;;;;;;;18.83;48.95;101967.16;7388366;19;20010;-71
2023/06/11 04:35:35;;;;;;;5.97;2.72;;;;;;;18.91;48.46;101967.31;7390050;19;20010;-69
2023/06/11 04:38:04;;;;;;;7.63;2.45;;;;;;;18.91;48.69;101967.31;7389163;19;20026;-62
2023/06/11 04:40:34;;;;;;;9.20;2.72;;;;;;;18.91;48.54;101968.16;7390359;19;20026;-77
2023/06/11 04:43:01;;;;;;;6.70;2.85;;;;;;;18.91;48.27;101956.56;7390947;19;20030;-77
2023/06/11 04:45:30;;;;;;;8.50;2.70;;;;;;;18.89;48.51;101962.09;7393165;19;20348;-76
2023/06/11 04:47:58;;;;;;;7.32;2.67;;;;;;;18.91;48.62;101961.94;7395976;19;20045;-77
2023/06/11 04:50:25;;;;;;;6.63;2.50;;;;;;;18.93;48.08;101968.03;7394057;19;20011;-77
2023/06/11 04:52:53;;;;;;;6.05;2.47;;;;;;;18.88;48.16;101957.69;7390899;19;20030;-65
2023/06/11 04:55:24;;;;;;;6.65;2.50;;;;;;;18.84;48.72;101956.25;7396677;19;20088;-66
2023/06/11 04:57:54;;;;;;;6.78;2.58;;;;;;;18.86;48.47;101951.63;7396597;19;20026;-66
2023/06/11 05:00:22;;;;;;;7.68;2.80;;;;;;;18.89;48.43;101959.41;7396709;19;20036;-67
2023/06/11 05:02:49;;;;;;;7.57;2.97;;;;;;;18.92;48.17;101953.72;7395073;19;20018;-66
2023/06/11 05:05:17;;;;;;;5.63;2.63;;;;;;;18.97;47.86;101962.25;7396138;19;20019;-66
2023/06/11 05:07:44;;;;;;;6.07;2.47;;;;;;;18.94;48.02;101957.13;7396418;19;20474;-67
2023/06/11 05:10:13;;;;;;;6.97;2.90;;;;;;;18.94;48.31;101959.81;7394856;19;20033;-66
2023/06/11 05:12:40;;;;;;;8.85;2.65;;;;;;;18.99;48.06;101970.16;7394599;19;20022;-66
2023/06/11 05:15:08;;;;;;;6.03;2.63;;;;;;;18.98;48.09;101969.31;7393416;19;20022;-67
2023/06/11 05:17:35;;;;;;;5.90;2.50;;;;;;;18.98;48.31;101971.13;7395965;19;20056;-66
2023/06/11 05:20:05;;;;;;;7.15;2.53;;;;;;;19.03;48.17;101976.09;7394044;19;20022;-66
2023/06/11 05:22:32;;;;;;;7.50;2.72;;;;;;;18.99;48.34;101970.16;7393234;19;20034;-67
2023/06/11 05:24:59;;;;;;;8.00;3.10;;;;;;;19.02;48.53;101971.72;7394163;19;20018;-67
2023/06/11 05:27:29;;;;;;;6.47;2.55;;;;;;;19.02;48.57;101969.88;7395654;19;20025;-67
2023/06/11 05:29:57;;;;;;;4.70;2.70;;;;;;;19.06;48.67;101965.06;7393892;19;20474;-66
2023/06/11 05:32:24;;;;;;;8.32;2.92;;;;;;;19.04;48.70;101970.59;7393373;19;20022;-66
2023/06/11 05:34:51;;;;;;;7.18;2.75;;;;;;;19.06;48.58;101965.91;7393628;19;20086;-66
2023/06/11 05:37:18;;;;;;;6.45;2.60;;;;;;;19.07;48.88;101972.97;7394184;19;20018;-67
2023/06/11 05:39:46;;;;;;;7.65;2.90;;;;;;;19.13;48.73;101976.97;7394808;19;20022;-67
2023/06/11 05:42:13;;;;;;;6.25;2.67;;;;;;;19.19;48.67;101969.22;7392676;19;20019;-66
2023/06/11 05:44:40;;;;;;;8.55;2.90;;;;;;;19.26;48.83;101968.63;7392148;19;20018;-67
2023/06/11 05:47:08;;;;;;;9.38;2.90;;;;;;;19.23;48.74;101976.00;7394969;19;20486;-74
2023/06/11 05:49:35;;;;;;;7.70;2.72;;;;;;;19.26;48.82;101976.69;7395425;19;20522;-74
2023/06/11 05:52:03;;;;;;;7.35;2.75;;;;;;;19.29;48.81;101979.09;7394624;19;20020;-74
2023/06/11 05:54:30;;;;;;;8.27;2.92;;;;;;;19.32;49.10;101981.50;7391119;19;20015;-74
2023/06/11 05:56:58;;;;;;;8.05;3.03;;;;;;;19.33;49.03;101980.50;7394992;19;20119;-74
2023/06/11 05:59:25;;;;;;;8.00;2.95;;;;;;;19.31;49.28;101979.78;7392597;19;20379;-73
2023/06/11 06:01:52;;;;;;;7.72;3.03;;;;;;;19.34;49.26;101975.00;7393218;19;20018;-74
2023/06/11 06:04:19;;;;;;;8.45;2.67;;;;;;;19.40;49.09;101973.59;7392938;19;20022;-74
2023/06/11 06:06:47;;;;;;;6.90;3.00;;;;;;;19.42;49.38;101974.28;7392922;19;20022;-74
2023/06/11 06:09:14;;;;;;;10.30;3.20;;;;;;;19.51;49.21;101973.47;7394725;19;20087;-64
2023/06/11 06:11:41;;;;;;;8.23;3.20;;;;;;;19.55;48.91;101966.81;7393846;19;20019;-65
2023/06/11 06:14:08;;;;;;;9.07;2.83;;;;;;;19.56;48.65;101975.72;7391623;19;20017;-67
2023/06/11 06:16:36;;;;;;;7.68;3.10;;;;;;;19.64;49.06;101973.19;7393657;19;20102;-69
2023/06/11 06:19:03;;;;;;;5.95;2.90;;;;;;;19.66;48.91;101974.75;7393703;19;20015;-69
2023/06/11 06:21:30;;;;;;;6.10;2.72;;;;;;;19.69;48.94;101970.94;7392928;19;20015;-69
2023/06/11 06:23:57;;;;;;;8.90;3.00;;;;;;;19.70;48.85;101973.47;7391877;19;20023;-77
2023/06/11 06:26:25;;;;;;;9.68;3.33;;;;;;;19.71;49.21;101964.41;7391854;19;20022;-68
2023/06/11 06:28:53;;;;;;;10.68;3.22;;;;;;;19.76;49.31;101977.44;7393907;19;20029;-66
2023/06/11 06:31:22;;;;;;;6.35;3.15;;;;;;;19.83;49.71;101977.72;7390629;19;20090;-77
2023/06/11 06:33:51;;;;;;;8.18;3.10;;;;;;;19.81;49.19;101980.56;7390570;19;20056;-70
2023/06/11 06:36:20;;;;;;;6.18;2.90;;;;;;;19.88;49.59;101975.44;7393886;19;20098;-72
2023/06/11 06:38:47;;;;;;;8.95;3.17;;;;;;;19.94;49.61;101967.63;7393021;19;20036;-73
2023/06/11 06:41:15;;;;;;;6.50;3.20;;;;;;;20.04;49.29;101982.94;7392294;19;20021;-74
2023/06/11 06:43:42;;;;;;;7.32;3.10;;;;;;;20.07;49.27;101977.22;7391796;19;20014;-69
2023/06/11 06:46:09;;;;;;;6.03;2.92;;;;;;;20.11;49.28;101978.63;7393101;19;20018;-68
2023/06/11 06:48:36;;;;;;;8.40;3.15;;;;;;;20.11;49.04;101982.19;7392871;19;20027;-68
2023/06/11 06:51:04;;;;;;;6.65;3.00;;;;;;;20.14;49.36;101973.81;7390216;19;20014;-68
2023/06/11 06:53:31;;;;;;;9.60;3.40;;;;;;;20.20;49.63;101977.78;7390276;19;20015;-68
2023/06/11 06:56:00;;;;;;;6.30;3.00;;;;;;;20.23;49.54;101974.81;7390644;19;20502;-68
2023/06/11 06:58:28;;;;;;;8.88;3.10;;;;;;;20.27;49.11;101975.38;7392467;19;20033;-68
2023/06/11 07:00:55;;;;;;;8.95;3.13;;;;;;;20.37;49.47;101976.16;7392233;19;20019;-68
2023/06/11 07:03:23;;;;;;;7.18;3.35;;;;;;;20.45;48.94;101973.56;7391698;19;20469;-67
2023/06/11 07:05:50;;;;;;;10.20;3.53;;;;;;;20.54;49.31;101971.91;7388289;19;20128;-67
2023/06/11 07:08:18;;;;;;;9.77;4.07;;;;;;;20.59;49.19;101977.66;7391832;19;20014;-67
2023/06/11 07:10:53;;;;;;;7.72;3.60;;;;;;;20.66;48.63;101976.91;7391097;19;20010;-68
2023/06/11 07:13:21;;;;;;;11.80;4.10;;;;;;;20.72;48.48;101975.50;7391494;19;20025;-67
2023/06/11 07:15:49;;;;;;;9.10;3.83;;;;;;;20.79;47.78;101971.19;7389396;19;20843;-67
2023/06/11 07:18:16;;;;;;;8.25;3.90;;;;;;;20.81;47.69;101979.13;7391890;19;20022;-67
2023/06/11 07:20:44;;;;;;;8.75;3.75;;;;;;;20.89;48.23;101981.91;7390566;19;20042;-67
2023/06/11 07:23:11;;;;;;;8.18;3.90;;;;;;;20.90;48.38;101984.44;7390947;19;20018;-67
2023/06/11 07:25:39;;;;;;;11.70;4.05;;;;;;;20.97;48.22;101983.84;7391826;19;20018;-67
2023/06/11 07:28:06;;;;;;;9.65;4.38;;;;;;;21.01;47.50;101985.25;7391895;19;20074;-67
2023/06/11 07:30:34;;;;;;;10.82;4.30;;;;;;;21.03;47.56;101985.94;7391432;19;20021;-68
2023/06/11 07:33:01;;;;;;;7.88;4.15;;;;;;;21.13;47.25;101984.03;7389212;19;20022;-68
2023/06/11 07:35:29;;;;;;;9.45;4.50;;;;;;;21.20;47.79;101979.72;7389803;19;20032;-68
2023/06/11 07:37:56;;;;;;;8.48;4.00;;;;;;;21.26;47.74;101979.13;7391034;19;20011;-67
2023/06/11 07:40:23;;;;;;;9.25;4.18;;;;;;;21.30;47.29;101974.28;7391354;19;20077;-68
2023/06/11 07:42:51;;;;;;;9.10;4.53;;;;;;;21.35;47.18;101967.44;7389715;19;20023;-69
2023/06/11 07:45:18;;;;;;;8.35;4.53;;;;;;;21.40;47.32;101975.06;7389805;19;20018;-69
2023/06/11 07:47:48;;;;;;;9.02;4.20;;;;;;;21.42;47.35;101979.31;7389589;19;20054;-68
2023/06/11 07:50:16;;;;;;;10.88;4.70;;;;;;;21.48;47.39;101975.13;7390714;19;20522;-70
2023/06/11 07:52:43;;;;;;;8.77;4.20;;;;;;;21.55;47.19;101970.81;7387293;19;20014;-69
2023/06/11 07:55:11;;;;;;;9.50;4.75;;;;;;;21.63;47.20;101975.44;7389908;19;20555;-70
2023/06/11 07:57:38;;;;;;;9.90;4.45;;;;;;;21.72;46.91;101970.97;7391177;19;20046;-68
2023/06/11 08:00:12;;;;;;;11.18;4.40;;;;;;;21.72;46.95;101974.53;7388774;19;20023;-68
2023/06/11 08:02:41;;;;;;;8.60;4.45;;;;;;;21.76;47.23;101972.34;7387980;19;20064;-69
2023/06/11 08:05:10;;;;;;;10.48;4.78;;;;;;;21.84;47.01;101975.97;7390449;19;20483;-70
2023/06/11 08:07:40;;;;;;;9.95;5.10;;;;;;;21.89;46.47;101970.09;7390560;19;20014;-68
2023/06/11 08:10:08;;;;;;;10.40;4.55;;;;;;;21.97;47.09;101978.22;7387857;19;20054;-69
2023/06/11 08:12:36;;;;;;;10.77;5.43;;;;;;;22.01;46.35;101976.06;7389552;19;20021;-69
2023/06/11 08:15:04;;;;;;;8.18;4.68;;;;;;;22.07;46.27;101978.16;7388790;19;20498;-68
2023/06/11 08:17:31;;;;;;;10.27;4.95;;;;;;;22.11;46.42;101971.44;7394594;19;20034;-69
2023/06/11 08:19:59;;;;;;;7.32;4.70;;;;;;;22.16;46.16;101962.88;7397172;19;20018;-68
2023/06/11 08:22:27;;;;;;;10.50;5.30;;;;;;;22.16;46.17;101969.13;7397216;19;20021;-68
2023/06/11 08:24:54;;;;;;;8.73;4.95;;;;;;;22.25;45.77;101968.19;7397411;19;20487;-68
2023/06/11 08:27:22;;;;;;;10.88;4.93;;;;;;;22.26;45.64;101969.88;7397279;19;20014;-69
2023/06/11 08:29:49;;;;;;;10.98;5.38;;;;;;;22.30;45.58;101979.34;7397041;19;20131;-70
2023/06/11 08:32:16;;;;;;;9.25;5.10;;;;;;;22.39;45.68;101975.66;7395935;19;20015;-69
2023/06/11 08:34:43;;;;;;;9.25;5.00;;;;;;;22.50;45.50;101974.53;7394694;19;20028;-69
2023/06/11 08:37:10;;;;;;;9.18;5.05;;;;;;;22.48;45.30;101973.88;7397279;19;20022;-69
2023/06/11 08:39:38;;;;;;;8.00;4.80;;;;;;;22.50;45.24;101971.84;7397442;19;20010;-68
2023/06/11 08:42:05;;;;;;;9.30;5.07;;;;;;;22.52;45.04;101972.53;7395758;19;20018;-68
2023/06/11 08:44:34;;;;;;;7.25;4.82;;;;;;;22.54;45.09;101975.91;7394500;19;20021;-69
2023/06/11 08:47:03;;;;;;;8.88;5.40;;;;;;;22.60;45.44;101966.31;7396305;19;20090;-69
2023/06/11 08:49:31;;;;;;;13.20;4.93;;;;;;;22.68;45.15;101969.06;7396870;19;20074;-69
2023/06/11 08:52:02;;;;;;;9.38;4.80;;;;;;;22.77;44.89;101970.75;7396057;19;20015;-69
2023/06/11 08:54:29;;;;;;;8.02;4.93;;;;;;;22.83;45.06;101975.53;7392339;19;20025;-68
2023/06/11 08:56:57;;;;;;;9.27;4.88;;;;;;;22.77;45.36;101970.75;7394788;19;20023;-68
2023/06/11 08:59:24;;;;;;;8.55;4.50;;;;;;;22.76;45.33;101973.63;7396587;19;20019;-68
2023/06/11 09:01:52;;;;;;;13.35;5.20;;;;;;;22.85;45.18;101975.34;7395223;19;20129;-69
2023/06/11 09:04:20;;;;;;;10.35;4.72;;;;;;;22.88;45.33;101972.31;7393420;19;20010;-68
2023/06/11 09:06:51;;;;;;;8.57;4.63;;;;;;;22.90;44.95;101977.59;7395976;19;20025;-69
2023/06/11 09:09:18;;;;;;;9.30;4.65;;;;;;;22.97;44.94;101974.09;7394913;19;20018;-67
2023/06/11 09:11:46;;;;;;;8.57;4.68;;;;;;;22.99;44.77;101972.06;7395515;19;20035;-67
2023/06/11 09:14:14;;;;;;;8.45;4.50;;;;;;;23.04;44.90;101972.41;7394192;19;20019;-67
2023/06/11 09:16:43;;;;;;;10.38;4.60;;;;;;;23.11;44.59;101970.72;7395795;19;20018;-68
2023/06/11 09:19:16;;;;;;;11.93;5.00;;;;;;;23.11;45.07;101973.44;7395858;19;20384;-68
2023/06/11 09:21:54;;;;;;;10.77;5.20;;;;;;;23.18;45.26;101978.19;7393478;19;20411;-68
2023/06/11 09:24:23;;;;;;;9.98;4.88;;;;;;;23.22;44.60;101969.56;7393868;19;20034;-69
2023/06/11 09:26:58;;;;;;;9.57;4.72;;;;;;;23.26;44.16;101968.22;7395624;19;20038;-70
2023/06/11 09:29:27;;;;;;;15.13;5.15;;;;;;;23.28;44.09;101971.63;7393830;19;20022;-69
2023/06/11 09:32:08;;;;;;;9.05;4.57;;;;;;;23.25;43.97;101969.25;7395350;19;20022;-67
2023/06/11 09:34:56;;;;;;;9.88;4.78;;;;;;;23.22;44.02;101968.72;7394343;19;20179;-66
2023/06/11 09:37:23;;;;;;;11.77;4.93;;;;;;;23.37;43.99;101968.94;7395597;19;20593;-66
2023/06/11 09:39:50;;;;;;;11.10;4.95;;;;;;;23.40;44.18;101969.44;7395062;19;20019;-66
2023/06/11 09:42:26;;;;;;;9.80;4.95;;;;;;;23.51;43.79;101968.28;7394298;19;20022;-67
2023/06/11 09:45:01;;;;;;;11.75;5.00;;;;;;;23.77;42.86;101960.00;7394936;19;20026;-67
2023/06/11 09:47:30;;;;;;;10.85;4.93;;;;;;;23.77;42.93;101963.56;7394895;19;20017;-67
2023/06/11 09:49:58;;;;;;;10.60;4.70;;;;;;;23.79;42.99;101972.34;7394771;19;20022;-68
2023/06/11 09:52:26;;;;;;;8.15;4.88;;;;;;;23.83;43.40;101964.72;7393593;19;20636;-68
2023/06/11 09:54:55;;;;;;;8.40;4.97;;;;;;;23.95;42.93;101965.22;7392932;19;20113;-67
2023/06/11 09:57:22;;;;;;;9.93;4.63;;;;;;;24.03;42.30;101970.63;7394128;19;20493;-67
2023/06/11 09:59:50;;;;;;;9.32;4.88;;;;;;;23.98;42.55;101964.88;7392661;19;20546;-66
2023/06/11 10:02:18;;;;;;;8.30;4.85;;;;;;;23.96;42.80;101972.31;7394222;19;20411;-67
2023/06/11 10:04:45;;;;;;;9.82;4.82;;;;;;;24.03;42.33;101968.75;7394260;19;20034;-68
2023/06/11 10:07:15;;;;;;;8.90;4.55;;;;;;;24.06;42.50;101964.88;7394378;19;20029;-67
2023/06/11 10:09:44;;;;;;;8.90;4.75;;;;;;;24.13;42.55;101967.75;7394162;19;20142;-68
2023/06/11 10:12:11;;;;;;;10.30;5.13;;;;;;;24.16;42.45;101962.81;7393179;19;20018;-66
2023/06/11 10:14:50;;;;;;;12.82;4.93;;;;;;;24.22;42.00;101961.28;7393603;19;20035;-67
2023/06/11 10:17:18;;;;;;;10.50;4.90;;;;;;;24.20;41.94;101963.31;7393782;19;20109;-67
2023/06/11 10:19:49;;;;;;;10.35;4.60;;;;;;;24.32;41.97;101967.34;7393664;19;20029;-66
2023/06/11 10:22:42;;;;;;;9.75;5.50;;;;;;;24.33;42.02;101963.59;7392395;19;20014;-66
2023/06/11 10:25:10;;;;;;;10.68;4.97;;;;;;;24.25;41.81;101956.34;7392873;19;20074;-66
2023/06/11 10:27:41;;;;;;;10.77;4.82;;;;;;;24.30;41.74;101955.81;7391535;19;20035;-66
2023/06/11 10:30:09;;;;;;;9.40;4.90;;;;;;;24.42;41.63;101950.91;7394806;19;20014;-66
2023/06/11 10:32:49;;;;;;;11.27;5.13;;;;;;;24.59;40.96;101954.41;7392474;19;20033;-66
2023/06/11 10:35:22;;;;;;;9.18;4.97;;;;;;;24.60;40.89;101946.09;7393313;19;20006;-67
2023/06/11 10:37:50;;;;;;;10.35;5.13;;;;;;;24.52;41.57;101952.41;7393625;19;20030;-67
2023/06/11 10:40:17;;;;;;;12.15;4.90;;;;;;;24.64;41.30;101954.72;7393250;19;20018;-69
2023/06/11 10:42:52;;;;;;;7.80;4.25;;;;;;;24.74;40.39;101950.78;7391600;19;20040;-67
2023/06/11 10:45:19;;;;;;;10.15;4.75;;;;;;;24.73;40.23;101942.84;7392464;19;20481;-68
2023/06/11 10:47:51;;;;;;;8.98;4.75;;;;;;;24.80;40.92;101949.22;7392681;19;20025;-66
2023/06/11 10:50:24;;;;;;;14.73;4.97;;;;;;;24.91;40.48;101948.81;7392110;19;20042;-66
2023/06/11 10:52:55;;;;;;;9.43;5.20;;;;;;;24.93;40.58;101945.94;7391049;19;20514;-66
2023/06/11 10:55:26;;;;;;;11.98;4.55;;;;;;;24.84;40.70;101945.16;7391596;19;20044;-66
2023/06/11 10:57:53;;;;;;;11.38;5.30;;;;;;;24.88;40.19;101948.31;7391019;19;20029;-66
2023/06/11 11:00:22;;;;;;;10.45;5.55;;;;;;;24.93;40.42;101941.38;7392648;19;20018;-67
2023/06/11 11:02:52;;;;;;;12.32;4.97;;;;;;;24.90;39.87;101936.28;7391168;19;20039;-66
2023/06/11 11:05:22;;;;;;;8.68;4.80;;;;;;;24.91;39.85;101942.56;7392646;19;20014;-66
2023/06/11 11:07:49;;;;;;;7.90;4.82;;;;;;;24.96;39.63;101932.03;7391813;19;20487;-66
2023/06/11 11:10:19;;;;;;;9.45;5.00;;;;;;;25.09;39.73;101937.69;7390667;19;20339;-66
2023/06/11 11:12:47;;;;;;;8.13;4.60;;;;;;;25.24;39.21;101935.09;7391356;19;20026;-66
2023/06/11 11:15:15;;;;;;;8.43;4.40;;;;;;;25.20;38.96;101936.47;7391086;19;20015;-65
2023/06/11 11:17:44;;;;;;;10.45;4.70;;;;;;;25.18;38.94;101924.97;7391740;19;20038;-65
2023/06/11 11:20:17;;;;;;;11.07;5.00;;;;;;;25.23;39.57;101933.41;7392024;19;20019;-66
2023/06/11 11:23:05;;;;;;;;;;;;;;;25.29;38.50;101919.13;7391125;19;20014;-65
2023/06/11 11:25:33;;;;;;;11.48;4.80;;;;;;;25.30;38.46;101926.25;7390957;19;19932;-65
2023/06/11 11:28:00;;;;;;;13.13;4.80;;;;;;;25.44;37.34;101925.44;7390038;19;20014;-64
2023/06/11 11:30:28;;;;;;;11.02;4.78;;;;;;;25.50;36.46;101913.84;7391227;19;20019;-65